Commodore Goodwill — C6NU8 — position and weather

sailwx.info

Track history (hours):
 
Tides and Currents Weather Stations Pressure Air Temp Water Temp Dewpoint Dewpoint Depression Visibility Wind Speed Wind Dir Waves Ship Positions

Commodore Goodwill

Operator: Condor Marine Services

Last reported at 2017-Oct-10 23:57 UTC. Time now 2017-Oct-18 09:15 UTC.
Position N 50°17' W 002°53'.

Length 126 m; draft 4.6 m.

Type: Ship (hazmat cat C). MMSI: 309536000.

Date/timePositionNaut miles runAvg speedWind from/ knotsBaromVisibWave heightAir tempDewpointWater temp
2017-Oct-10 23:57N 50°17' W 002°53'715.8
2017-Oct-10 23:30N 50°19' W 002°43'6115.4
2017-Oct-10 19:32N 50°35' W 001°10'017.7
2017-Oct-10 19:30N 50°35' W 001°09'816.8
2017-Oct-10 19:00N 50°42' W 001°01'815.5
2017-Oct-10 18:31N 50°48' W 001°07'1 1.7
2017-Oct-10 18:01N 50°49' W 001°06'0 0.0
2017-Oct-10 17:31N 50°49' W 001°06'0 0.0
2017-Oct-10 17:00N 50°49' W 001°06'0 0.0
2017-Oct-10 16:31N 50°49' W 001°06'0 0.0
2017-Oct-10 16:01N 50°49' W 001°06'0 0.0
2017-Oct-10 15:31N 50°49' W 001°06'0 0.3
2017-Oct-10 15:00N 50°49' W 001°06'1110.9
2017-Oct-10 13:58N 50°37' W 001°07'3 0.2
2017-Oct-09 19:36N 50°34' W 001°06'214.5
2017-Oct-09 19:29N 50°36' W 001°04'714.2
2017-Oct-09 19:00N 50°42' W 001°01'612.2
2017-Oct-09 18:30N 50°47' W 001°06'2 3.4
2017-Oct-09 18:00N 50°49' W 001°06'0 0.0
2017-Oct-09 17:30N 50°49' W 001°06'0 0.0
2017-Oct-09 17:00N 50°49' W 001°06'0 0.0
2017-Oct-09 16:31N 50°49' W 001°06'0 0.0
2017-Oct-09 16:01N 50°49' W 001°06'0 0.0
2017-Oct-09 15:31N 50°49' W 001°06'0 1.0
2017-Oct-09 15:00N 50°49' W 001°06'611.3
2017-Oct-09 14:30N 50°43' W 001°04'815.2
2017-Oct-09 14:00N 50°36' W 001°08'3 0.2
2017-Oct-08 19:24N 50°37' W 001°04'513.0
2017-Oct-08 19:00N 50°42' W 001°01'714.0
2017-Oct-08 18:31N 50°48' W 001°07'1 2.3
2017-Oct-08 18:00N 50°49' W 001°06'0 0.0
2017-Oct-08 17:31N 50°49' W 001°06'0 0.0
2017-Oct-08 17:00N 50°49' W 001°06'0 0.0
2017-Oct-08 16:30N 50°49' W 001°06'0 0.0
2017-Oct-08 16:01N 50°49' W 001°06'0 0.0
2017-Oct-08 15:30N 50°49' W 001°06'0 0.0
2017-Oct-08 15:01N 50°49' W 001°06'0 0.0
2017-Oct-08 14:30N 50°49' W 001°06'0 0.0
2017-Oct-08 14:01N 50°49' W 001°06'0 0.0
2017-Oct-08 13:30N 50°49' W 001°06'0 0.0
2017-Oct-08 13:00N 50°49' W 001°06'0 0.0
2017-Oct-08 12:30N 50°49' W 001°06'0 0.0
2017-Oct-08 12:01N 50°49' W 001°06'0 0.0
2017-Oct-08 11:30N 50°49' W 001°06'0 0.0
2017-Oct-08 11:01N 50°49' W 001°06'0 0.0
2017-Oct-08 10:31N 50°49' W 001°06'0 0.0
2017-Oct-08 10:01N 50°49' W 001°06'0 0.0
2017-Oct-08 09:30N 50°49' W 001°06'0 0.0
2017-Oct-08 09:00N 50°49' W 001°06'0 0.0
2017-Oct-08 08:31N 50°49' W 001°06'0 0.0
2017-Oct-08 08:00N 50°49' W 001°06'0 0.0
2017-Oct-08 07:31N 50°49' W 001°06'0 0.0
2017-Oct-08 07:01N 50°49' W 001°06'0 0.0
2017-Oct-08 06:30N 50°49' W 001°06'0 0.0
2017-Oct-08 06:00N 50°49' W 001°06'0 0.0
2017-Oct-08 05:30N 50°49' W 001°06'2 4.2
2017-Oct-08 05:00N 50°47' W 001°06'713.9
2017-Oct-08 04:30N 50°40' W 001°01'814.7
2017-Oct-08 03:58N 50°34' W 001°08'120 6.8
2017-Oct-07 10:12N 48°39' W 002°03'315.7
2017-Oct-07 09:59N 48°42' W 002°06'816.0
2017-Oct-07 09:30N 48°49' W 002°02'1316.9
2017-Oct-07 08:45N 49°01' W 001°55'102 7.5
2017-Oct-06 19:12N 50°37' W 001°03'315.1
2017-Oct-06 19:00N 50°40' W 001°01'815.2
2017-Oct-06 18:31N 50°46' W 001°06'2 4.5
2017-Oct-06 18:00N 50°49' W 001°06'0 0.0
2017-Oct-06 17:31N 50°49' W 001°06'0 0.0
2017-Oct-06 17:01N 50°49' W 001°06'0 0.0
2017-Oct-06 16:30N 50°49' W 001°06'0 0.0
2017-Oct-06 16:00N 50°49' W 001°06'0 0.4
2017-Oct-06 15:30N 50°49' W 001°06'4 8.3
2017-Oct-06 15:00N 50°45' W 001°05'813.7
2017-Oct-06 14:27N 50°37' W 001°07'3514.6
2017-Oct-06 12:04N 50°10' W 001°42'117.1
2017-Oct-06 12:00N 50°09' W 001°42'1016.8
2017-Oct-06 11:23N 49°60' W 001°48'616.6
2017-Oct-06 11:00N 49°54' W 001°53'8 0.8
2017-Oct-06 00:53N 49°48' W 001°60'717.3
2017-Oct-06 00:30N 49°53' W 001°54'917.0
2017-Oct-06 00:00N 50°00' W 001°47'816.5
2017-Oct-05 23:30N 50°07' W 001°39'3214.7
2017-Oct-05 21:18N 50°34' W 001°10'414.1
2017-Oct-05 21:00N 50°37' W 001°07'714.4
2017-Oct-05 20:31N 50°44' W 001°04'5 9.3
2017-Oct-05 20:01N 50°49' W 001°06'0 0.0
2017-Oct-05 19:30N 50°49' W 001°06'0 0.0
2017-Oct-05 19:01N 50°49' W 001°06'0 0.0
2017-Oct-05 18:31N 50°49' W 001°06'0 0.0
2017-Oct-05 18:01N 50°49' W 001°06'0 0.0
2017-Oct-05 17:31N 50°49' W 001°06'0 0.0
2017-Oct-05 17:01N 50°49' W 001°06'11 7.0
2017-Oct-05 15:31N 50°38' W 001°02'815.4
2017-Oct-05 15:00N 50°32' W 001°10'3715.0
2017-Oct-05 12:34N 50°03' W 001°43'114.6
2017-Oct-05 12:31N 50°02' W 001°44'815.0
2017-Oct-05 12:00N 49°56' W 001°51'815.4
2017-Oct-05 11:30N 49°49' W 001°57'39 4.6
2017-Oct-05 02:55N 49°11' W 002°07'716.6
2017-Oct-05 02:30N 49°10' W 002°18'1015.7
2017-Oct-05 01:52N 49°20' W 002°19'3116.2
2017-Oct-04 23:57N 49°49' W 001°60'817.0
2017-Oct-04 23:30N 49°55' W 001°54'815.4
2017-Oct-04 23:00N 50°02' W 001°48'714.3
2017-Oct-04 22:31N 50°07' W 001°41'3513.3
2017-Oct-04 19:52N 50°36' W 001°08'614.6
2017-Oct-04 19:29N 50°40' W 001°04'714.1
2017-Oct-04 19:00N 50°47' W 001°06'2 3.8
2017-Oct-04 18:30N 50°49' W 001°06'0 0.0
2017-Oct-04 18:00N 50°49' W 001°06'0 0.0
2017-Oct-04 17:30N 50°49' W 001°06'0 0.0
2017-Oct-04 17:01N 50°49' W 001°06'0 0.0
2017-Oct-04 16:30N 50°49' W 001°06'0 0.0
2017-Oct-04 16:00N 50°49' W 001°06'0 0.0
2017-Oct-04 15:30N 50°49' W 001°06'2 4.4
2017-Oct-04 15:01N 50°47' W 001°06'714.3
2017-Oct-04 14:31N 50°40' W 001°00'815.1
2017-Oct-04 13:59N 50°34' W 001°08'3416.0
2017-Oct-04 11:52N 50°07' W 001°39'615.7
2017-Oct-04 11:30N 50°02' W 001°44'814.9
2017-Oct-04 11:00N 49°56' W 001°51'815.7
2017-Oct-04 10:31N 49°49' W 001°57'2 0.2
2017-Oct-03 23:45N 49°48' W 001°59'416.2
2017-Oct-03 23:30N 49°51' W 001°56'714.3
2017-Oct-03 23:00N 49°57' W 001°49'714.4
2017-Oct-03 22:30N 50°03' W 001°43'814.6
2017-Oct-03 22:00N 50°09' W 001°37'2414.7
2017-Oct-03 20:21N 50°29' W 001°15'713.3
2017-Oct-03 19:51N 50°34' W 001°10'613.2
2017-Oct-03 19:24N 50°40' W 001°05'512.9
2017-Oct-03 19:01N 50°44' W 001°04'4 8.6
2017-Oct-03 18:31N 50°49' W 001°06'0 0.2
2017-Oct-03 18:01N 50°49' W 001°06'0 0.0
2017-Oct-03 17:30N 50°49' W 001°06'0 0.0
2017-Oct-03 17:00N 50°49' W 001°06'0 0.0
2017-Oct-03 16:30N 50°49' W 001°06'0 0.0
2017-Oct-03 16:00N 50°49' W 001°06'0 0.0
2017-Oct-03 15:30N 50°49' W 001°06'2 4.1
2017-Oct-03 15:00N 50°47' W 001°06'1212.2
2017-Oct-03 14:00N 50°35' W 001°08'3614.5
2017-Oct-03 11:32N 50°06' W 001°41'114.5
2017-Oct-03 11:29N 50°05' W 001°42'712.8
2017-Oct-03 10:58N 49°60' W 001°48'613.2
2017-Oct-03 10:30N 49°54' W 001°52'714.2
2017-Oct-03 10:00N 49°48' W 001°58'1 0.1
2017-Oct-02 23:41N 49°48' W 002°00'316.4
2017-Oct-02 23:31N 49°51' W 001°58'815.3
2017-Oct-02 23:00N 49°57' W 001°52'815.3
2017-Oct-02 22:30N 50°04' W 001°45'715.0
2017-Oct-02 22:01N 50°10' W 001°39'3014.4
2017-Oct-02 19:54N 50°34' W 001°10'613.9
2017-Oct-02 19:26N 50°40' W 001°04'512.6
2017-Oct-02 19:00N 50°45' W 001°05'4 7.5
2017-Oct-02 18:30N 50°49' W 001°06'0 0.0
2017-Oct-02 18:00N 50°49' W 001°06'0 0.0
2017-Oct-02 17:31N 50°49' W 001°06'0 0.0
2017-Oct-02 17:00N 50°49' W 001°06'0 0.0
2017-Oct-02 16:31N 50°49' W 001°06'0 0.0
2017-Oct-02 16:01N 50°49' W 001°06'0 0.0
2017-Oct-02 15:30N 50°49' W 001°06'2 3.5
2017-Oct-02 15:00N 50°47' W 001°06'714.5
2017-Oct-02 14:31N 50°41' W 001°01'814.9
2017-Oct-02 14:00N 50°35' W 001°09'4116.5
2017-Oct-02 11:30N 50°02' W 001°48'816.4
2017-Oct-02 11:00N 49°55' W 001°54'816.3
2017-Oct-02 10:30N 49°48' W 001°60'3116.2
2017-Oct-02 08:36N 49°20' W 002°19'417.2
2017-Oct-02 08:22N 49°16' W 002°22'11 1.6
2017-Oct-02 01:20N 49°28' W 002°23'2512.3
2017-Oct-01 23:16N 49°48' W 002°00'313.2
2017-Oct-01 23:00N 49°51' W 001°57'612.9
2017-Oct-01 22:30N 49°56' W 001°52'612.5
2017-Oct-01 22:01N 50°02' W 001°47'612.1
2017-Oct-01 21:30N 50°07' W 001°42'611.7
2017-Oct-01 20:59N 50°12' W 001°37'2214.7
2017-Oct-01 19:28N 50°29' W 001°15'613.2
2017-Oct-01 18:59N 50°35' W 001°10'713.3
2017-Oct-01 18:28N 50°40' W 001°04'613.2
2017-Oct-01 18:00N 50°46' W 001°06'2 4.7
2017-Oct-01 17:30N 50°49' W 001°06'0 0.0
2017-Oct-01 17:01N 50°49' W 001°06'0 0.0
2017-Oct-01 16:30N 50°49' W 001°06'0 0.0
2017-Oct-01 16:00N 50°49' W 001°06'0 0.0
2017-Oct-01 15:30N 50°49' W 001°06'0 0.0
2017-Oct-01 15:00N 50°49' W 001°06'0 0.0
2017-Oct-01 14:31N 50°49' W 001°06'0 0.0
2017-Oct-01 14:00N 50°49' W 001°06'0 0.0
2017-Oct-01 13:30N 50°49' W 001°06'0 0.0
2017-Oct-01 13:00N 50°49' W 001°06'0 0.0
2017-Oct-01 12:30N 50°49' W 001°06'0 0.0
2017-Oct-01 12:00N 50°49' W 001°06'0 0.0
2017-Oct-01 11:30N 50°49' W 001°06'0 0.0
2017-Oct-01 11:00N 50°49' W 001°06'0 0.0
2017-Oct-01 10:30N 50°49' W 001°06'0 0.0
2017-Oct-01 10:00N 50°49' W 001°06'0 0.0
2017-Oct-01 09:31N 50°49' W 001°06'0 0.0
2017-Oct-01 09:00N 50°49' W 001°06'0 0.0
2017-Oct-01 08:30N 50°49' W 001°06'0 0.0
2017-Oct-01 08:00N 50°49' W 001°06'0 0.0
2017-Oct-01 07:30N 50°49' W 001°06'0 0.0
2017-Oct-01 07:00N 50°49' W 001°06'0 0.0
2017-Oct-01 06:30N 50°49' W 001°06'0 0.0
2017-Oct-01 06:00N 50°49' W 001°06'2 3.2
2017-Oct-01 05:30N 50°47' W 001°06'714.2
2017-Oct-01 05:00N 50°40' W 001°04'916.8
2017-Oct-01 04:29N 50°32' W 001°09'  
Track history (hours):
 
Tides and Currents Weather Stations Pressure Air Temp Water Temp Dewpoint Dewpoint Depression Visibility Wind Speed Wind Dir Waves Ship Positions

Commodore Goodwill

Operator: Condor Marine Services

Last reported at 2017-Oct-10 23:57 UTC. Time now 2017-Oct-18 09:15 UTC.
Position N 50°17' W 002°53'.

Length 126 m; draft 4.6 m.

Type: Ship (hazmat cat C). MMSI: 309536000.

Date/timePositionNaut miles runAvg speedWind from/ knotsBaromVisibWave heightAir tempDewpointWater temp
2017-Oct-10 23:57N 50°17' W 002°53'715.8
2017-Oct-10 23:30N 50°19' W 002°43'6115.4
2017-Oct-10 19:32N 50°35' W 001°10'017.7
2017-Oct-10 19:30N 50°35' W 001°09'816.8
2017-Oct-10 19:00N 50°42' W 001°01'815.5
2017-Oct-10 18:31N 50°48' W 001°07'1 1.7
2017-Oct-10 18:01N 50°49' W 001°06'0 0.0
2017-Oct-10 17:31N 50°49' W 001°06'0 0.0
2017-Oct-10 17:00N 50°49' W 001°06'0 0.0
2017-Oct-10 16:31N 50°49' W 001°06'0 0.0
2017-Oct-10 16:01N 50°49' W 001°06'0 0.0
2017-Oct-10 15:31N 50°49' W 001°06'0 0.3
2017-Oct-10 15:00N 50°49' W 001°06'1110.9
2017-Oct-10 13:58N 50°37' W 001°07'3 0.2
2017-Oct-09 19:36N 50°34' W 001°06'214.5
2017-Oct-09 19:29N 50°36' W 001°04'714.2
2017-Oct-09 19:00N 50°42' W 001°01'612.2
2017-Oct-09 18:30N 50°47' W 001°06'2 3.4
2017-Oct-09 18:00N 50°49' W 001°06'0 0.0
2017-Oct-09 17:30N 50°49' W 001°06'0 0.0
2017-Oct-09 17:00N 50°49' W 001°06'0 0.0
2017-Oct-09 16:31N 50°49' W 001°06'0 0.0
2017-Oct-09 16:01N 50°49' W 001°06'0 0.0
2017-Oct-09 15:31N 50°49' W 001°06'0 1.0
2017-Oct-09 15:00N 50°49' W 001°06'611.3
2017-Oct-09 14:30N 50°43' W 001°04'815.2
2017-Oct-09 14:00N 50°36' W 001°08'3 0.2
2017-Oct-08 19:24N 50°37' W 001°04'513.0
2017-Oct-08 19:00N 50°42' W 001°01'714.0
2017-Oct-08 18:31N 50°48' W 001°07'1 2.3
2017-Oct-08 18:00N 50°49' W 001°06'0 0.0
2017-Oct-08 17:31N 50°49' W 001°06'0 0.0
2017-Oct-08 17:00N 50°49' W 001°06'0 0.0
2017-Oct-08 16:30N 50°49' W 001°06'0 0.0
2017-Oct-08 16:01N 50°49' W 001°06'0 0.0
2017-Oct-08 15:30N 50°49' W 001°06'0 0.0
2017-Oct-08 15:01N 50°49' W 001°06'0 0.0
2017-Oct-08 14:30N 50°49' W 001°06'0 0.0
2017-Oct-08 14:01N 50°49' W 001°06'0 0.0
2017-Oct-08 13:30N 50°49' W 001°06'0 0.0
2017-Oct-08 13:00N 50°49' W 001°06'0 0.0
2017-Oct-08 12:30N 50°49' W 001°06'0 0.0
2017-Oct-08 12:01N 50°49' W 001°06'0 0.0
2017-Oct-08 11:30N 50°49' W 001°06'0 0.0
2017-Oct-08 11:01N 50°49' W 001°06'0 0.0
2017-Oct-08 10:31N 50°49' W 001°06'0 0.0
2017-Oct-08 10:01N 50°49' W 001°06'0 0.0
2017-Oct-08 09:30N 50°49' W 001°06'0 0.0
2017-Oct-08 09:00N 50°49' W 001°06'0 0.0
2017-Oct-08 08:31N 50°49' W 001°06'0 0.0
2017-Oct-08 08:00N 50°49' W 001°06'0 0.0
2017-Oct-08 07:31N 50°49' W 001°06'0 0.0
2017-Oct-08 07:01N 50°49' W 001°06'0 0.0
2017-Oct-08 06:30N 50°49' W 001°06'0 0.0
2017-Oct-08 06:00N 50°49' W 001°06'0 0.0
2017-Oct-08 05:30N 50°49' W 001°06'2 4.2
2017-Oct-08 05:00N 50°47' W 001°06'713.9
2017-Oct-08 04:30N 50°40' W 001°01'814.7
2017-Oct-08 03:58N 50°34' W 001°08'120 6.8
2017-Oct-07 10:12N 48°39' W 002°03'315.7
2017-Oct-07 09:59N 48°42' W 002°06'816.0
2017-Oct-07 09:30N 48°49' W 002°02'1316.9
2017-Oct-07 08:45N 49°01' W 001°55'102 7.5
2017-Oct-06 19:12N 50°37' W 001°03'315.1
2017-Oct-06 19:00N 50°40' W 001°01'815.2
2017-Oct-06 18:31N 50°46' W 001°06'2 4.5
2017-Oct-06 18:00N 50°49' W 001°06'0 0.0
2017-Oct-06 17:31N 50°49' W 001°06'0 0.0
2017-Oct-06 17:01N 50°49' W 001°06'0 0.0
2017-Oct-06 16:30N 50°49' W 001°06'0 0.0
2017-Oct-06 16:00N 50°49' W 001°06'0 0.4
2017-Oct-06 15:30N 50°49' W 001°06'4 8.3
2017-Oct-06 15:00N 50°45' W 001°05'813.7
2017-Oct-06 14:27N 50°37' W 001°07'3514.6
2017-Oct-06 12:04N 50°10' W 001°42'117.1
2017-Oct-06 12:00N 50°09' W 001°42'1016.8
2017-Oct-06 11:23N 49°60' W 001°48'616.6
2017-Oct-06 11:00N 49°54' W 001°53'8 0.8
2017-Oct-06 00:53N 49°48' W 001°60'717.3
2017-Oct-06 00:30N 49°53' W 001°54'917.0
2017-Oct-06 00:00N 50°00' W 001°47'816.5
2017-Oct-05 23:30N 50°07' W 001°39'3214.7
2017-Oct-05 21:18N 50°34' W 001°10'414.1
2017-Oct-05 21:00N 50°37' W 001°07'714.4
2017-Oct-05 20:31N 50°44' W 001°04'5 9.3
2017-Oct-05 20:01N 50°49' W 001°06'0 0.0
2017-Oct-05 19:30N 50°49' W 001°06'0 0.0
2017-Oct-05 19:01N 50°49' W 001°06'0 0.0
2017-Oct-05 18:31N 50°49' W 001°06'0 0.0
2017-Oct-05 18:01N 50°49' W 001°06'0 0.0
2017-Oct-05 17:31N 50°49' W 001°06'0 0.0
2017-Oct-05 17:01N 50°49' W 001°06'11 7.0
2017-Oct-05 15:31N 50°38' W 001°02'815.4
2017-Oct-05 15:00N 50°32' W 001°10'3715.0
2017-Oct-05 12:34N 50°03' W 001°43'114.6
2017-Oct-05 12:31N 50°02' W 001°44'815.0
2017-Oct-05 12:00N 49°56' W 001°51'815.4
2017-Oct-05 11:30N 49°49' W 001°57'39 4.6
2017-Oct-05 02:55N 49°11' W 002°07'716.6
2017-Oct-05 02:30N 49°10' W 002°18'1015.7
2017-Oct-05 01:52N 49°20' W 002°19'3116.2
2017-Oct-04 23:57N 49°49' W 001°60'817.0
2017-Oct-04 23:30N 49°55' W 001°54'815.4
2017-Oct-04 23:00N 50°02' W 001°48'714.3
2017-Oct-04 22:31N 50°07' W 001°41'3513.3
2017-Oct-04 19:52N 50°36' W 001°08'614.6
2017-Oct-04 19:29N 50°40' W 001°04'714.1
2017-Oct-04 19:00N 50°47' W 001°06'2 3.8
2017-Oct-04 18:30N 50°49' W 001°06'0 0.0
2017-Oct-04 18:00N 50°49' W 001°06'0 0.0
2017-Oct-04 17:30N 50°49' W 001°06'0 0.0
2017-Oct-04 17:01N 50°49' W 001°06'0 0.0
2017-Oct-04 16:30N 50°49' W 001°06'0 0.0
2017-Oct-04 16:00N 50°49' W 001°06'0 0.0
2017-Oct-04 15:30N 50°49' W 001°06'2 4.4
2017-Oct-04 15:01N 50°47' W 001°06'714.3
2017-Oct-04 14:31N 50°40' W 001°00'815.1
2017-Oct-04 13:59N 50°34' W 001°08'3416.0
2017-Oct-04 11:52N 50°07' W 001°39'615.7
2017-Oct-04 11:30N 50°02' W 001°44'814.9
2017-Oct-04 11:00N 49°56' W 001°51'815.7
2017-Oct-04 10:31N 49°49' W 001°57'2 0.2
2017-Oct-03 23:45N 49°48' W 001°59'416.2
2017-Oct-03 23:30N 49°51' W 001°56'714.3
2017-Oct-03 23:00N 49°57' W 001°49'714.4
2017-Oct-03 22:30N 50°03' W 001°43'814.6
2017-Oct-03 22:00N 50°09' W 001°37'2414.7
2017-Oct-03 20:21N 50°29' W 001°15'713.3
2017-Oct-03 19:51N 50°34' W 001°10'613.2
2017-Oct-03 19:24N 50°40' W 001°05'512.9
2017-Oct-03 19:01N 50°44' W 001°04'4 8.6
2017-Oct-03 18:31N 50°49' W 001°06'0 0.2
2017-Oct-03 18:01N 50°49' W 001°06'0 0.0
2017-Oct-03 17:30N 50°49' W 001°06'0 0.0
2017-Oct-03 17:00N 50°49' W 001°06'0 0.0
2017-Oct-03 16:30N 50°49' W 001°06'0 0.0
2017-Oct-03 16:00N 50°49' W 001°06'0 0.0
2017-Oct-03 15:30N 50°49' W 001°06'2 4.1
2017-Oct-03 15:00N 50°47' W 001°06'1212.2
2017-Oct-03 14:00N 50°35' W 001°08'3614.5
2017-Oct-03 11:32N 50°06' W 001°41'114.5
2017-Oct-03 11:29N 50°05' W 001°42'712.8
2017-Oct-03 10:58N 49°60' W 001°48'613.2
2017-Oct-03 10:30N 49°54' W 001°52'714.2
2017-Oct-03 10:00N 49°48' W 001°58'1 0.1
2017-Oct-02 23:41N 49°48' W 002°00'316.4
2017-Oct-02 23:31N 49°51' W 001°58'815.3
2017-Oct-02 23:00N 49°57' W 001°52'815.3
2017-Oct-02 22:30N 50°04' W 001°45'715.0
2017-Oct-02 22:01N 50°10' W 001°39'3014.4
2017-Oct-02 19:54N 50°34' W 001°10'613.9
2017-Oct-02 19:26N 50°40' W 001°04'512.6
2017-Oct-02 19:00N 50°45' W 001°05'4 7.5
2017-Oct-02 18:30N 50°49' W 001°06'0 0.0
2017-Oct-02 18:00N 50°49' W 001°06'0 0.0
2017-Oct-02 17:31N 50°49' W 001°06'0 0.0
2017-Oct-02 17:00N 50°49' W 001°06'0 0.0
2017-Oct-02 16:31N 50°49' W 001°06'0 0.0
2017-Oct-02 16:01N 50°49' W 001°06'0 0.0
2017-Oct-02 15:30N 50°49' W 001°06'2 3.5
2017-Oct-02 15:00N 50°47' W 001°06'714.5
2017-Oct-02 14:31N 50°41' W 001°01'814.9
2017-Oct-02 14:00N 50°35' W 001°09'4116.5
2017-Oct-02 11:30N 50°02' W 001°48'816.4
2017-Oct-02 11:00N 49°55' W 001°54'816.3
2017-Oct-02 10:30N 49°48' W 001°60'3116.2
2017-Oct-02 08:36N 49°20' W 002°19'417.2
2017-Oct-02 08:22N 49°16' W 002°22'11 1.6
2017-Oct-02 01:20N 49°28' W 002°23'2512.3
2017-Oct-01 23:16N 49°48' W 002°00'313.2
2017-Oct-01 23:00N 49°51' W 001°57'612.9
2017-Oct-01 22:30N 49°56' W 001°52'612.5
2017-Oct-01 22:01N 50°02' W 001°47'612.1
2017-Oct-01 21:30N 50°07' W 001°42'611.7
2017-Oct-01 20:59N 50°12' W 001°37'2214.7
2017-Oct-01 19:28N 50°29' W 001°15'613.2
2017-Oct-01 18:59N 50°35' W 001°10'713.3
2017-Oct-01 18:28N 50°40' W 001°04'613.2
2017-Oct-01 18:00N 50°46' W 001°06'2 4.7
2017-Oct-01 17:30N 50°49' W 001°06'0 0.0
2017-Oct-01 17:01N 50°49' W 001°06'0 0.0
2017-Oct-01 16:30N 50°49' W 001°06'0 0.0
2017-Oct-01 16:00N 50°49' W 001°06'0 0.0
2017-Oct-01 15:30N 50°49' W 001°06'0 0.0
2017-Oct-01 15:00N 50°49' W 001°06'0 0.0
2017-Oct-01 14:31N 50°49' W 001°06'0 0.0
2017-Oct-01 14:00N 50°49' W 001°06'0 0.0
2017-Oct-01 13:30N 50°49' W 001°06'0 0.0
2017-Oct-01 13:00N 50°49' W 001°06'0 0.0
2017-Oct-01 12:30N 50°49' W 001°06'0 0.0
2017-Oct-01 12:00N 50°49' W 001°06'0 0.0
2017-Oct-01 11:30N 50°49' W 001°06'0 0.0
2017-Oct-01 11:00N 50°49' W 001°06'0 0.0
2017-Oct-01 10:30N 50°49' W 001°06'0 0.0
2017-Oct-01 10:00N 50°49' W 001°06'0 0.0
2017-Oct-01 09:31N 50°49' W 001°06'0 0.0
2017-Oct-01 09:00N 50°49' W 001°06'0 0.0
2017-Oct-01 08:30N 50°49' W 001°06'0 0.0
2017-Oct-01 08:00N 50°49' W 001°06'0 0.0
2017-Oct-01 07:30N 50°49' W 001°06'0 0.0
2017-Oct-01 07:00N 50°49' W 001°06'0 0.0
2017-Oct-01 06:30N 50°49' W 001°06'0 0.0
2017-Oct-01 06:00N 50°49' W 001°06'2 3.2
2017-Oct-01 05:30N 50°47' W 001°06'714.2
2017-Oct-01 05:00N 50°40' W 001°04'916.8
2017-Oct-01 04:29N 50°32' W 001°09'  

Dump ship's entire track history